Surface observations / UK / EGMC

Quebec | Canada | USA | France | UK | Europe | Elsewhere

Display: Info & Location for EGMC | Help decoding METAR

EGMC SOUTHEND-ON-SEA -- UK
Raw surface observations for station EGMC
EGMC 290050Z 08006KT CAVOK 11/09 Q1007=
EGMC 282350Z 08006KT CAVOK 11/09 Q1007=
EGMC 282250Z 07007KT CAVOK 11/09 Q1007=
EGMC 282220Z 08008KT CAVOK 11/10 Q1007=
EGMC 282150Z 06007KT CAVOK 11/09 Q1007=
EGMC 282120Z 08006KT CAVOK 11/09 Q1007=
EGMC 282050Z 04007KT CAVOK 11/09 Q1006=
EGMC 282020Z 05005KT 9000 FEW045 11/10 Q1006=
EGMC 281950Z 06004KT 9000 FEW045 11/09 Q1006=
EGMC 281920Z 06004KT 020V090 9000 FEW040 11/09 Q1005=
EGMC 281850Z 03005KT CAVOK 11/09 Q1005=
EGMC 281820Z 06006KT CAVOK 10/09 Q1005=
EGMC 281750Z 06006KT CAVOK 10/08 Q1005=
EGMC 281720Z 06006KT CAVOK 10/08 Q1005=
EGMC 281650Z 05006KT CAVOK 10/08 Q1004=
EGMC 281620Z 06007KT CAVOK 10/09 Q1004=
EGMC 281550Z 06007KT CAVOK 11/09 Q1004=
EGMC 281520Z 07007KT CAVOK 11/09 Q1004=
EGMC 281450Z 08009KT CAVOK 12/09 Q1003=
EGMC 281420Z 09010KT 9999 FEW012 13/10 Q1003=
EGMC 281350Z 08011KT 9999 FEW012 13/10 Q1003=
EGMC 281320Z 09012KT 9999 FEW012 12/09 Q1003=
EGMC 281250Z 09011KT 9999 FEW013 11/09 Q1003=
EGMC 281220Z 08010KT 9999 FEW013 11/09 Q1003=
EGMC 281150Z 09011KT 9999 FEW013 12/09 Q1003=
EGMC 281120Z 09010KT 9999 FEW011 SCT014 12/09 Q1003=
EGMC 281050Z 09010KT 9000 BKN010 11/09 Q1003=
EGMC 281020Z 09011KT 7000 BKN010 11/09 Q1003=
EGMC 280950Z 08010KT 7000 BKN009 11/09 Q1003=
EGMC 280920Z 10010KT 7000 BKN009 11/09 Q1003=
EGMC 280850Z 09011KT 7000 BKN008 11/09 Q1003=
EGMC 280820Z 10009KT 7000 BKN008 11/09 Q1003=
EGMC 280750Z 09008KT 7000 FEW007 BKN009 11/10 Q1002=
EGMC 280720Z 09007KT 7000 BKN010 11/10 Q1002=
EGMC 280650Z 10008KT 7000 SCT010 BKN016 11/09 Q1002=
EGMC 280620Z 09006KT 8000 FEW009 BKN013 11/10 Q1002=
EGMC 280550Z 09007KT 8000 FEW011 BKN019 11/09 Q1002=
EGMC 280520Z 10007KT 8000 FEW008 SCT011 11/10 Q1002=
EGMC 280450Z 09007KT 7000 SCT008 BKN011 11/09 Q1002=
EGMC 280420Z 10006KT 7000 SCT009 BKN013 11/09 Q1002=
EGMC 280350Z 11006KT 6000 SCT008 BKN023 11/10 Q1002=
EGMC 280250Z 09004KT 6000 OVC008 11/09 Q1002=
EGMC 280220Z 10007KT 6000 OVC008 11/09 Q1002=
EGMC 280120Z 12008KT 7000 BKN009 11/09 Q1002=